sensor_id;sensor_type;location;lat;lon;timestamp;pressure;altitude;pressure_sealevel;temperature;humidity
34034;BME280;63481;52.588;22.472;2023-03-26T00:00:09;98885.22;;;5.72;95.75
34034;BME280;63481;52.588;22.472;2023-03-26T00:01:26;98887.75;;;5.70;95.90
34034;BME280;63481;52.588;22.472;2023-03-26T00:02:19;98884.39;;;5.71;95.97
34034;BME280;63481;52.588;22.472;2023-03-26T00:03:13;98881.77;;;5.72;95.97
34034;BME280;63481;52.588;22.472;2023-03-26T00:04:06;98880.01;;;5.72;95.78
34034;BME280;63481;52.588;22.472;2023-03-26T00:04:59;98880.80;;;5.71;95.86
34034;BME280;63481;52.588;22.472;2023-03-26T00:06:06;98876.80;;;5.69;95.95
34034;BME280;63481;52.588;22.472;2023-03-26T00:06:59;98873.23;;;5.69;95.83
34034;BME280;63481;52.588;22.472;2023-03-26T00:07:52;98874.77;;;5.71;96.10
34034;BME280;63481;52.588;22.472;2023-03-26T00:08:44;98870.75;;;5.68;95.83
34034;BME280;63481;52.588;22.472;2023-03-26T00:09:37;98867.65;;;5.66;95.78
34034;BME280;63481;52.588;22.472;2023-03-26T00:10:30;98863.84;;;5.66;96.00
34034;BME280;63481;52.588;22.472;2023-03-26T00:11:24;98861.42;;;5.60;95.79
34034;BME280;63481;52.588;22.472;2023-03-26T00:12:18;98864.93;;;5.59;95.91
34034;BME280;63481;52.588;22.472;2023-03-26T00:13:11;98860.28;;;5.59;96.07
34034;BME280;63481;52.588;22.472;2023-03-26T00:14:03;98863.58;;;5.57;96.18
34034;BME280;63481;52.588;22.472;2023-03-26T00:14:56;98866.63;;;5.56;96.18
34034;BME280;63481;52.588;22.472;2023-03-26T00:15:49;98857.61;;;5.53;96.27
34034;BME280;63481;52.588;22.472;2023-03-26T00:16:43;98862.49;;;5.54;96.33
34034;BME280;63481;52.588;22.472;2023-03-26T00:17:35;98862.62;;;5.52;96.34
34034;BME280;63481;52.588;22.472;2023-03-26T00:18:28;98858.88;;;5.53;96.35
34034;BME280;63481;52.588;22.472;2023-03-26T00:19:26;98858.11;;;5.57;96.32
34034;BME280;63481;52.588;22.472;2023-03-26T00:20:19;98856.09;;;5.59;96.29
34034;BME280;63481;52.588;22.472;2023-03-26T00:21:14;98858.16;;;5.58;96.51
34034;BME280;63481;52.588;22.472;2023-03-26T00:22:07;98854.30;;;5.58;96.27
34034;BME280;63481;52.588;22.472;2023-03-26T00:23:04;98853.90;;;5.57;96.23
34034;BME280;63481;52.588;22.472;2023-03-26T00:24:02;98855.09;;;5.56;96.26
34034;BME280;63481;52.588;22.472;2023-03-26T00:24:58;98850.80;;;5.58;96.26
34034;BME280;63481;52.588;22.472;2023-03-26T00:25:50;98852.63;;;5.59;96.27
34034;BME280;63481;52.588;22.472;2023-03-26T00:26:43;98850.52;;;5.56;96.14
34034;BME280;63481;52.588;22.472;2023-03-26T00:27:36;98850.45;;;5.53;96.28
34034;BME280;63481;52.588;22.472;2023-03-26T00:28:29;98851.00;;;5.49;96.35
34034;BME280;63481;52.588;22.472;2023-03-26T00:29:22;98854.85;;;5.48;96.28
34034;BME280;63481;52.588;22.472;2023-03-26T00:30:15;98850.02;;;5.47;96.51
34034;BME280;63481;52.588;22.472;2023-03-26T00:31:11;98850.35;;;5.44;96.65
34034;BME280;63481;52.588;22.472;2023-03-26T00:32:04;98847.92;;;5.39;96.66
34034;BME280;63481;52.588;22.472;2023-03-26T00:32:57;98845.65;;;5.37;96.98
34034;BME280;63481;52.588;22.472;2023-03-26T00:33:50;98846.63;;;5.37;96.90
34034;BME280;63481;52.588;22.472;2023-03-26T00:34:45;98847.37;;;5.33;96.89
34034;BME280;63481;52.588;22.472;2023-03-26T00:35:38;98844.92;;;5.35;97.06
34034;BME280;63481;52.588;22.472;2023-03-26T00:36:31;98843.99;;;5.37;97.08
34034;BME280;63481;52.588;22.472;2023-03-26T00:37:27;98842.77;;;5.35;97.03
34034;BME280;63481;52.588;22.472;2023-03-26T00:38:20;98842.77;;;5.34;96.99
34034;BME280;63481;52.588;22.472;2023-03-26T00:39:13;98843.32;;;5.28;96.95
34034;BME280;63481;52.588;22.472;2023-03-26T00:40:07;98839.91;;;5.24;97.27
34034;BME280;63481;52.588;22.472;2023-03-26T00:41:02;98838.09;;;5.23;97.41
34034;BME280;63481;52.588;22.472;2023-03-26T00:41:57;98841.21;;;5.18;97.57
34034;BME280;63481;52.588;22.472;2023-03-26T00:42:49;98841.67;;;5.17;97.68
34034;BME280;63481;52.588;22.472;2023-03-26T00:43:45;98843.59;;;5.15;97.59
34034;BME280;63481;52.588;22.472;2023-03-26T00:44:37;98843.23;;;5.16;97.76
34034;BME280;63481;52.588;22.472;2023-03-26T00:45:30;98838.70;;;5.18;97.67
34034;BME280;63481;52.588;22.472;2023-03-26T00:46:24;98840.68;;;5.20;97.80
34034;BME280;63481;52.588;22.472;2023-03-26T00:47:17;98841.67;;;5.18;97.65
34034;BME280;63481;52.588;22.472;2023-03-26T00:48:09;98837.97;;;5.14;97.77
34034;BME280;63481;52.588;22.472;2023-03-26T00:49:03;98840.87;;;5.12;97.71
34034;BME280;63481;52.588;22.472;2023-03-26T00:49:55;98842.16;;;5.09;97.58
34034;BME280;63481;52.588;22.472;2023-03-26T00:50:49;98837.77;;;5.06;97.62
34034;BME280;63481;52.588;22.472;2023-03-26T00:51:42;98840.14;;;5.06;97.86
34034;BME280;63481;52.588;22.472;2023-03-26T00:52:34;98841.19;;;5.06;97.91
34034;BME280;63481;52.588;22.472;2023-03-26T00:53:27;98841.83;;;5.08;97.79
34034;BME280;63481;52.588;22.472;2023-03-26T00:54:19;98842.33;;;5.08;97.58
34034;BME280;63481;52.588;22.472;2023-03-26T00:55:12;98840.70;;;5.03;97.78
34034;BME280;63481;52.588;22.472;2023-03-26T00:56:07;98847.50;;;4.97;97.88
34034;BME280;63481;52.588;22.472;2023-03-26T00:57:00;98842.35;;;4.92;97.79
34034;BME280;63481;52.588;22.472;2023-03-26T00:57:53;98840.60;;;4.96;98.08
34034;BME280;63481;52.588;22.472;2023-03-26T00:58:46;98844.27;;;4.90;98.19
34034;BME280;63481;52.588;22.472;2023-03-26T00:59:41;98847.31;;;4.87;98.39
34034;BME280;63481;52.588;22.472;2023-03-26T01:00:49;98846.45;;;4.94;98.53
34034;BME280;63481;52.588;22.472;2023-03-26T01:01:42;98849.33;;;4.95;98.82
34034;BME280;63481;52.588;22.472;2023-03-26T01:02:36;98851.40;;;4.94;98.72
34034;BME280;63481;52.588;22.472;2023-03-26T01:03:33;98848.88;;;4.98;98.80
34034;BME280;63481;52.588;22.472;2023-03-26T01:04:31;98849.34;;;4.98;98.62
34034;BME280;63481;52.588;22.472;2023-03-26T01:06:28;98850.36;;;4.84;98.46
34034;BME280;63481;52.588;22.472;2023-03-26T01:07:28;98850.93;;;4.83;98.38
34034;BME280;63481;52.588;22.472;2023-03-26T01:08:45;98851.66;;;4.83;98.66
34034;BME280;63481;52.588;22.472;2023-03-26T01:09:42;98851.09;;;4.85;98.70
34034;BME280;63481;52.588;22.472;2023-03-26T01:10:36;98851.42;;;4.78;98.45
34034;BME280;63481;52.588;22.472;2023-03-26T01:11:32;98852.27;;;4.74;98.60
34034;BME280;63481;52.588;22.472;2023-03-26T01:12:28;98851.65;;;4.71;98.69
34034;BME280;63481;52.588;22.472;2023-03-26T01:13:24;98849.14;;;4.70;98.87
34034;BME280;63481;52.588;22.472;2023-03-26T01:14:20;98848.94;;;4.75;99.21
34034;BME280;63481;52.588;22.472;2023-03-26T01:15:16;98847.30;;;4.78;99.24
34034;BME280;63481;52.588;22.472;2023-03-26T01:16:22;98848.95;;;4.74;99.32
34034;BME280;63481;52.588;22.472;2023-03-26T01:17:16;98850.56;;;4.78;99.28
34034;BME280;63481;52.588;22.472;2023-03-26T01:18:09;98849.41;;;4.81;99.29
34034;BME280;63481;52.588;22.472;2023-03-26T01:19:12;98846.65;;;4.79;99.26
34034;BME280;63481;52.588;22.472;2023-03-26T01:20:16;98850.65;;;4.77;99.42
34034;BME280;63481;52.588;22.472;2023-03-26T01:21:11;98850.36;;;4.82;99.52
34034;BME280;63481;52.588;22.472;2023-03-26T01:22:07;98845.16;;;4.83;99.42
34034;BME280;63481;52.588;22.472;2023-03-26T01:23:05;98849.06;;;4.88;99.33
34034;BME280;63481;52.588;22.472;2023-03-26T01:24:03;98847.96;;;4.91;99.49
34034;BME280;63481;52.588;22.472;2023-03-26T01:24:56;98849.98;;;4.92;99.11
34034;BME280;63481;52.588;22.472;2023-03-26T01:26:00;98850.68;;;4.93;99.06
34034;BME280;63481;52.588;22.472;2023-03-26T01:28:09;98849.84;;;4.89;98.93
34034;BME280;63481;52.588;22.472;2023-03-26T01:29:04;98853.05;;;4.91;98.93
34034;BME280;63481;52.588;22.472;2023-03-26T01:30:11;98846.70;;;4.88;98.69
34034;BME280;63481;52.588;22.472;2023-03-26T01:33:26;98848.77;;;4.81;98.81
34034;BME280;63481;52.588;22.472;2023-03-26T01:37:03;98845.85;;;4.66;98.63
34034;BME280;63481;52.588;22.472;2023-03-26T01:39:30;98843.29;;;4.67;99.18
34034;BME280;63481;52.588;22.472;2023-03-26T01:40:34;98846.30;;;4.66;99.51
34034;BME280;63481;52.588;22.472;2023-03-26T01:42:34;98846.66;;;4.65;99.44
34034;BME280;63481;52.588;22.472;2023-03-26T01:44:44;98844.66;;;4.59;99.56
34034;BME280;63481;52.588;22.472;2023-03-26T01:45:41;98845.48;;;4.54;99.60
34034;BME280;63481;52.588;22.472;2023-03-26T01:46:36;98844.54;;;4.52;99.49
34034;BME280;63481;52.588;22.472;2023-03-26T01:47:29;98841.13;;;4.49;99.63
34034;BME280;63481;52.588;22.472;2023-03-26T01:48:43;98840.51;;;4.46;99.93
34034;BME280;63481;52.588;22.472;2023-03-26T01:49:36;98840.59;;;4.47;99.97
34034;BME280;63481;52.588;22.472;2023-03-26T01:50:29;98840.60;;;4.47;99.97
34034;BME280;63481;52.588;22.472;2023-03-26T01:51:31;98838.12;;;4.47;100.00
34034;BME280;63481;52.588;22.472;2023-03-26T01:52:23;98841.29;;;4.46;100.00
34034;BME280;63481;52.588;22.472;2023-03-26T01:53:17;98839.63;;;4.45;100.00
34034;BME280;63481;52.588;22.472;2023-03-26T01:54:15;98841.69;;;4.47;100.00
34034;BME280;63481;52.588;22.472;2023-03-26T01:55:10;98840.73;;;4.55;100.00
34034;BME280;63481;52.588;22.472;2023-03-26T01:56:16;98842.77;;;4.64;100.00
34034;BME280;63481;52.588;22.472;2023-03-26T01:58:40;98840.48;;;4.65;100.00
34034;BME280;63481;52.588;22.472;2023-03-26T02:00:57;98836.70;;;4.55;100.00
34034;BME280;63481;52.588;22.472;2023-03-26T02:02:10;98840.75;;;4.50;100.00
34034;BME280;63481;52.588;22.472;2023-03-26T02:03:30;98841.13;;;4.48;100.00
34034;BME280;63481;52.588;22.472;2023-03-26T02:04:33;98839.61;;;4.47;100.00
34034;BME280;63481;52.588;22.472;2023-03-26T02:05:53;98840.39;;;4.45;100.00
34034;BME280;63481;52.588;22.472;2023-03-26T02:09:10;98838.58;;;4.53;100.00
34034;BME280;63481;52.588;22.472;2023-03-26T02:10:12;98838.64;;;4.49;100.00
34034;BME280;63481;52.588;22.472;2023-03-26T02:11:11;98842.05;;;4.45;100.00
34034;BME280;63481;52.588;22.472;2023-03-26T02:12:05;98843.80;;;4.46;100.00
34034;BME280;63481;52.588;22.472;2023-03-26T02:12:58;98840.63;;;4.47;100.00
34034;BME280;63481;52.588;22.472;2023-03-26T02:13:52;98839.80;;;4.48;100.00
34034;BME280;63481;52.588;22.472;2023-03-26T02:14:44;98842.84;;;4.49;100.00
34034;BME280;63481;52.588;22.472;2023-03-26T02:15:39;98840.73;;;4.53;100.00
34034;BME280;63481;52.588;22.472;2023-03-26T02:16:32;98839.21;;;4.59;100.00
34034;BME280;63481;52.588;22.472;2023-03-26T02:17:25;98840.23;;;4.62;100.00
34034;BME280;63481;52.588;22.472;2023-03-26T02:18:21;98840.37;;;4.62;100.00
34034;BME280;63481;52.588;22.472;2023-03-26T02:19:15;98840.27;;;4.63;100.00
34034;BME280;63481;52.588;22.472;2023-03-26T02:20:14;98843.41;;;4.69;100.00
34034;BME280;63481;52.588;22.472;2023-03-26T02:21:14;98845.52;;;4.78;100.00
34034;BME280;63481;52.588;22.472;2023-03-26T02:22:12;98843.16;;;4.80;100.00
34034;BME280;63481;52.588;22.472;2023-03-26T02:23:08;98842.36;;;4.84;100.00
34034;BME280;63481;52.588;22.472;2023-03-26T02:24:01;98841.86;;;4.88;100.00
34034;BME280;63481;52.588;22.472;2023-03-26T02:24:55;98841.39;;;4.86;100.00
34034;BME280;63481;52.588;22.472;2023-03-26T02:25:48;98839.23;;;4.85;100.00
34034;BME280;63481;52.588;22.472;2023-03-26T02:26:41;98839.63;;;4.88;99.99
34034;BME280;63481;52.588;22.472;2023-03-26T02:27:38;98842.23;;;4.89;99.92
34034;BME280;63481;52.588;22.472;2023-03-26T02:28:31;98842.60;;;4.94;99.79
34034;BME280;63481;52.588;22.472;2023-03-26T02:29:25;98841.02;;;4.97;99.44
34034;BME280;63481;52.588;22.472;2023-03-26T02:30:24;98835.81;;;4.97;99.50
34034;BME280;63481;52.588;22.472;2023-03-26T02:31:17;98838.31;;;4.98;99.30
34034;BME280;63481;52.588;22.472;2023-03-26T02:32:11;98836.70;;;4.99;99.21
34034;BME280;63481;52.588;22.472;2023-03-26T02:33:05;98837.34;;;4.98;99.24
34034;BME280;63481;52.588;22.472;2023-03-26T02:34:04;98837.35;;;4.99;98.95
34034;BME280;63481;52.588;22.472;2023-03-26T02:35:00;98838.91;;;5.00;99.00
34034;BME280;63481;52.588;22.472;2023-03-26T02:35:54;98834.66;;;4.99;98.71
34034;BME280;63481;52.588;22.472;2023-03-26T02:36:50;98833.89;;;4.98;98.77
34034;BME280;63481;52.588;22.472;2023-03-26T02:37:44;98837.27;;;5.00;98.86
34034;BME280;63481;52.588;22.472;2023-03-26T02:38:41;98834.21;;;4.99;98.68
34034;BME280;63481;52.588;22.472;2023-03-26T02:39:35;98840.30;;;4.95;98.63
34034;BME280;63481;52.588;22.472;2023-03-26T02:40:34;98836.05;;;4.97;98.79
34034;BME280;63481;52.588;22.472;2023-03-26T02:41:27;98833.45;;;4.97;98.65
34034;BME280;63481;52.588;22.472;2023-03-26T02:42:24;98835.36;;;4.97;98.81
34034;BME280;63481;52.588;22.472;2023-03-26T02:43:18;98839.79;;;4.97;98.72
34034;BME280;63481;52.588;22.472;2023-03-26T02:44:12;98833.48;;;4.96;98.63
34034;BME280;63481;52.588;22.472;2023-03-26T02:45:24;98832.67;;;4.93;98.56
34034;BME280;63481;52.588;22.472;2023-03-26T02:46:43;98836.34;;;4.92;98.63
34034;BME280;63481;52.588;22.472;2023-03-26T02:47:56;98832.88;;;4.93;98.82
34034;BME280;63481;52.588;22.472;2023-03-26T02:49:11;98837.27;;;4.93;98.80
34034;BME280;63481;52.588;22.472;2023-03-26T02:50:05;98838.15;;;4.96;98.80
34034;BME280;63481;52.588;22.472;2023-03-26T02:51:35;98836.13;;;4.98;98.77
34034;BME280;63481;52.588;22.472;2023-03-26T02:52:43;98839.90;;;5.00;98.82
34034;BME280;63481;52.588;22.472;2023-03-26T02:53:37;98837.19;;;5.00;98.67
34034;BME280;63481;52.588;22.472;2023-03-26T02:54:50;98833.92;;;5.02;98.55
34034;BME280;63481;52.588;22.472;2023-03-26T02:55:45;98834.73;;;5.04;98.57
34034;BME280;63481;52.588;22.472;2023-03-26T02:56:37;98835.23;;;5.04;98.37
34034;BME280;63481;52.588;22.472;2023-03-26T02:57:59;98834.45;;;5.07;98.31
34034;BME280;63481;52.588;22.472;2023-03-26T02:58:59;98837.41;;;5.08;98.12
34034;BME280;63481;52.588;22.472;2023-03-26T02:59:52;98839.66;;;5.05;98.10
34034;BME280;63481;52.588;22.472;2023-03-26T03:01:04;98835.48;;;5.02;98.27
34034;BME280;63481;52.588;22.472;2023-03-26T03:02:03;98833.77;;;5.02;98.30
34034;BME280;63481;52.588;22.472;2023-03-26T03:02:57;98834.39;;;5.03;98.26
34034;BME280;63481;52.588;22.472;2023-03-26T03:03:56;98831.58;;;5.03;98.39
34034;BME280;63481;52.588;22.472;2023-03-26T03:05:00;98834.63;;;4.98;98.46
34034;BME280;63481;52.588;22.472;2023-03-26T03:05:57;98835.02;;;4.95;98.58
34034;BME280;63481;52.588;22.472;2023-03-26T03:07:10;98833.95;;;4.97;98.90
34034;BME280;63481;52.588;22.472;2023-03-26T03:08:06;98832.14;;;5.00;98.75
34034;BME280;63481;52.588;22.472;2023-03-26T03:09:00;98835.31;;;5.01;98.91
34034;BME280;63481;52.588;22.472;2023-03-26T03:10:05;98833.36;;;5.00;98.79
34034;BME280;63481;52.588;22.472;2023-03-26T03:11:25;98830.39;;;4.98;98.83
34034;BME280;63481;52.588;22.472;2023-03-26T03:12:17;98833.17;;;4.97;98.79
34034;BME280;63481;52.588;22.472;2023-03-26T03:13:10;98830.48;;;5.02;98.66
34034;BME280;63481;52.588;22.472;2023-03-26T03:14:03;98828.84;;;5.01;98.82
34034;BME280;63481;52.588;22.472;2023-03-26T03:14:56;98832.55;;;5.02;98.75
34034;BME280;63481;52.588;22.472;2023-03-26T03:15:50;98833.36;;;5.00;98.51
34034;BME280;63481;52.588;22.472;2023-03-26T03:16:42;98841.02;;;4.97;98.66
34034;BME280;63481;52.588;22.472;2023-03-26T03:17:35;98839.70;;;4.93;98.77
34034;BME280;63481;52.588;22.472;2023-03-26T03:18:28;98842.55;;;4.95;98.85
34034;BME280;63481;52.588;22.472;2023-03-26T03:19:21;98837.11;;;5.00;98.88
34034;BME280;63481;52.588;22.472;2023-03-26T03:20:13;98839.83;;;4.98;98.93
34034;BME280;63481;52.588;22.472;2023-03-26T03:21:07;98841.17;;;4.94;98.86
34034;BME280;63481;52.588;22.472;2023-03-26T03:22:00;98835.64;;;4.96;98.85
34034;BME280;63481;52.588;22.472;2023-03-26T03:22:52;98838.16;;;4.96;98.90
34034;BME280;63481;52.588;22.472;2023-03-26T03:23:45;98841.25;;;4.95;98.97
34034;BME280;63481;52.588;22.472;2023-03-26T03:24:39;98842.91;;;4.96;98.80
34034;BME280;63481;52.588;22.472;2023-03-26T03:25:31;98846.48;;;4.98;98.85
34034;BME280;63481;52.588;22.472;2023-03-26T03:26:26;98844.34;;;4.97;98.65
34034;BME280;63481;52.588;22.472;2023-03-26T03:27:19;98841.00;;;5.01;98.65
34034;BME280;63481;52.588;22.472;2023-03-26T03:28:20;98843.33;;;4.95;98.65
34034;BME280;63481;52.588;22.472;2023-03-26T03:29:13;98842.42;;;4.93;98.68
34034;BME280;63481;52.588;22.472;2023-03-26T03:30:07;98845.10;;;4.95;98.70
34034;BME280;63481;52.588;22.472;2023-03-26T03:31:25;98842.43;;;4.99;98.88
34034;BME280;63481;52.588;22.472;2023-03-26T03:32:18;98836.20;;;5.01;98.58
34034;BME280;63481;52.588;22.472;2023-03-26T03:33:12;98836.17;;;5.03;98.76
34034;BME280;63481;52.588;22.472;2023-03-26T03:34:05;98837.92;;;5.00;98.66
34034;BME280;63481;52.588;22.472;2023-03-26T03:35:00;98836.77;;;4.98;98.61
34034;BME280;63481;52.588;22.472;2023-03-26T03:35:53;98834.09;;;5.00;98.73
34034;BME280;63481;52.588;22.472;2023-03-26T03:36:46;98834.21;;;4.97;98.76
34034;BME280;63481;52.588;22.472;2023-03-26T03:37:50;98831.84;;;5.00;98.79
34034;BME280;63481;52.588;22.472;2023-03-26T03:38:43;98831.05;;;4.96;98.72
34034;BME280;63481;52.588;22.472;2023-03-26T03:39:36;98829.87;;;4.95;98.83
34034;BME280;63481;52.588;22.472;2023-03-26T03:40:29;98827.41;;;5.00;98.82
34034;BME280;63481;52.588;22.472;2023-03-26T03:41:22;98823.73;;;5.00;98.87
34034;BME280;63481;52.588;22.472;2023-03-26T03:42:14;98823.77;;;5.02;98.94
34034;BME280;63481;52.588;22.472;2023-03-26T03:43:07;98829.16;;;5.05;98.79
34034;BME280;63481;52.588;22.472;2023-03-26T03:44:06;98831.20;;;5.05;98.61
34034;BME280;63481;52.588;22.472;2023-03-26T03:45:00;98831.42;;;5.09;98.42
34034;BME280;63481;52.588;22.472;2023-03-26T03:46:09;98831.40;;;5.05;98.33
34034;BME280;63481;52.588;22.472;2023-03-26T03:47:04;98830.35;;;5.01;98.56
34034;BME280;63481;52.588;22.472;2023-03-26T03:47:58;98835.92;;;4.98;98.44
34034;BME280;63481;52.588;22.472;2023-03-26T03:48:56;98833.01;;;4.93;98.67
34034;BME280;63481;52.588;22.472;2023-03-26T03:49:56;98836.83;;;4.91;98.65
34034;BME280;63481;52.588;22.472;2023-03-26T03:50:51;98835.27;;;4.88;98.67
34034;BME280;63481;52.588;22.472;2023-03-26T03:51:53;98838.20;;;4.85;98.87
34034;BME280;63481;52.588;22.472;2023-03-26T03:53:06;98836.23;;;4.84;99.01
34034;BME280;63481;52.588;22.472;2023-03-26T03:53:59;98835.28;;;4.83;99.07
34034;BME280;63481;52.588;22.472;2023-03-26T03:55:06;98839.20;;;4.83;99.03
34034;BME280;63481;52.588;22.472;2023-03-26T03:56:08;98839.82;;;4.87;99.06
34034;BME280;63481;52.588;22.472;2023-03-26T03:57:24;98839.75;;;4.88;99.14
34034;BME280;63481;52.588;22.472;2023-03-26T03:58:25;98836.63;;;4.84;99.02
34034;BME280;63481;52.588;22.472;2023-03-26T03:59:19;98834.44;;;4.80;99.08
34034;BME280;63481;52.588;22.472;2023-03-26T04:00:13;98832.61;;;4.80;99.12
34034;BME280;63481;52.588;22.472;2023-03-26T04:01:08;98834.63;;;4.87;99.29
34034;BME280;63481;52.588;22.472;2023-03-26T04:02:12;98834.99;;;4.90;99.12
34034;BME280;63481;52.588;22.472;2023-03-26T04:03:08;98835.20;;;4.92;99.08
34034;BME280;63481;52.588;22.472;2023-03-26T04:04:05;98832.07;;;4.94;99.44
34034;BME280;63481;52.588;22.472;2023-03-26T04:05:09;98834.44;;;4.92;99.22
34034;BME280;63481;52.588;22.472;2023-03-26T04:06:05;98834.33;;;4.95;99.04
34034;BME280;63481;52.588;22.472;2023-03-26T04:07:03;98833.65;;;4.99;99.01
34034;BME280;63481;52.588;22.472;2023-03-26T04:08:02;98834.59;;;4.98;98.96
34034;BME280;63481;52.588;22.472;2023-03-26T04:09:04;98835.83;;;5.06;98.77
34034;BME280;63481;52.588;22.472;2023-03-26T04:09:57;98834.48;;;5.06;98.72
34034;BME280;63481;52.588;22.472;2023-03-26T04:10:51;98833.80;;;5.04;98.75
34034;BME280;63481;52.588;22.472;2023-03-26T04:12:02;98837.90;;;5.04;98.65
34034;BME280;63481;52.588;22.472;2023-03-26T04:13:02;98836.86;;;5.05;98.58
34034;BME280;63481;52.588;22.472;2023-03-26T04:14:17;98836.64;;;5.08;98.41
34034;BME280;63481;52.588;22.472;2023-03-26T04:15:24;98838.40;;;5.10;98.49
34034;BME280;63481;52.588;22.472;2023-03-26T04:16:17;98838.75;;;5.09;98.22
34034;BME280;63481;52.588;22.472;2023-03-26T04:17:09;98838.75;;;5.07;98.22
34034;BME280;63481;52.588;22.472;2023-03-26T04:18:05;98835.79;;;5.11;98.33
34034;BME280;63481;52.588;22.472;2023-03-26T04:19:01;98837.16;;;5.08;98.22
34034;BME280;63481;52.588;22.472;2023-03-26T04:19:55;98832.69;;;5.08;98.32
34034;BME280;63481;52.588;22.472;2023-03-26T04:20:50;98834.85;;;5.16;98.32
34034;BME280;63481;52.588;22.472;2023-03-26T04:21:49;98830.30;;;5.13;97.98
34034;BME280;63481;52.588;22.472;2023-03-26T04:22:44;98830.30;;;5.11;98.21
34034;BME280;63481;52.588;22.472;2023-03-26T04:23:38;98830.27;;;5.06;98.21
34034;BME280;63481;52.588;22.472;2023-03-26T04:24:40;98829.98;;;5.01;98.21
34034;BME280;63481;52.588;22.472;2023-03-26T04:25:52;98827.70;;;5.05;98.52
34034;BME280;63481;52.588;22.472;2023-03-26T04:26:47;98830.14;;;5.05;98.52
34034;BME280;63481;52.588;22.472;2023-03-26T04:27:42;98830.35;;;5.03;98.67
34034;BME280;63481;52.588;22.472;2023-03-26T04:28:54;98828.31;;;5.06;98.81
34034;BME280;63481;52.588;22.472;2023-03-26T04:29:52;98826.21;;;5.02;98.65
34034;BME280;63481;52.588;22.472;2023-03-26T04:30:48;98824.58;;;5.01;98.55
34034;BME280;63481;52.588;22.472;2023-03-26T04:32:05;98826.45;;;5.04;98.85
34034;BME280;63481;52.588;22.472;2023-03-26T04:33:03;98831.23;;;5.09;98.67
34034;BME280;63481;52.588;22.472;2023-03-26T04:34:05;98831.56;;;5.11;98.44
34034;BME280;63481;52.588;22.472;2023-03-26T04:35:00;98835.41;;;5.14;98.19
34034;BME280;63481;52.588;22.472;2023-03-26T04:35:55;98834.38;;;5.17;98.15
34034;BME280;63481;52.588;22.472;2023-03-26T04:36:55;98835.86;;;5.14;98.10
34034;BME280;63481;52.588;22.472;2023-03-26T04:37:52;98836.60;;;5.11;98.00
34034;BME280;63481;52.588;22.472;2023-03-26T04:38:52;98833.91;;;5.13;98.22
34034;BME280;63481;52.588;22.472;2023-03-26T04:39:50;98838.64;;;5.10;98.08
34034;BME280;63481;52.588;22.472;2023-03-26T04:41:04;98837.20;;;5.14;98.09
34034;BME280;63481;52.588;22.472;2023-03-26T04:42:20;98836.98;;;5.14;98.15
34034;BME280;63481;52.588;22.472;2023-03-26T04:43:33;98836.14;;;5.17;97.99
34034;BME280;63481;52.588;22.472;2023-03-26T04:44:31;98840.01;;;5.14;97.90
34034;BME280;63481;52.588;22.472;2023-03-26T04:45:31;98839.08;;;5.12;98.08
34034;BME280;63481;52.588;22.472;2023-03-26T04:46:25;98838.87;;;5.14;98.10
34034;BME280;63481;52.588;22.472;2023-03-26T04:47:27;98843.05;;;5.18;97.82
34034;BME280;63481;52.588;22.472;2023-03-26T04:48:21;98838.73;;;5.20;97.70
34034;BME280;63481;52.588;22.472;2023-03-26T04:49:14;98837.56;;;5.20;97.84
34034;BME280;63481;52.588;22.472;2023-03-26T04:50:09;98837.15;;;5.17;97.84
34034;BME280;63481;52.588;22.472;2023-03-26T04:51:03;98837.67;;;5.17;97.99
34034;BME280;63481;52.588;22.472;2023-03-26T04:51:59;98839.92;;;5.16;97.89
34034;BME280;63481;52.588;22.472;2023-03-26T04:53:26;98836.90;;;5.22;98.04
34034;BME280;63481;52.588;22.472;2023-03-26T04:54:38;98834.19;;;5.21;97.78
34034;BME280;63481;52.588;22.472;2023-03-26T04:55:40;98830.77;;;5.24;97.63
34034;BME280;63481;52.588;22.472;2023-03-26T04:57:03;98832.60;;;5.30;97.71
34034;BME280;63481;52.588;22.472;2023-03-26T04:58:08;98829.55;;;5.35;97.49
34034;BME280;63481;52.588;22.472;2023-03-26T04:59:32;98828.55;;;5.35;97.15
34034;BME280;63481;52.588;22.472;2023-03-26T05:00:33;98826.77;;;5.43;97.00
34034;BME280;63481;52.588;22.472;2023-03-26T05:01:26;98828.30;;;5.45;96.88
34034;BME280;63481;52.588;22.472;2023-03-26T05:02:22;98824.81;;;5.46;96.67
34034;BME280;63481;52.588;22.472;2023-03-26T05:03:19;98825.02;;;5.46;96.77
34034;BME280;63481;52.588;22.472;2023-03-26T05:04:12;98826.15;;;5.48;96.72
34034;BME280;63481;52.588;22.472;2023-03-26T05:05:05;98823.52;;;5.50;96.58
34034;BME280;63481;52.588;22.472;2023-03-26T05:05:59;98824.41;;;5.52;96.47
34034;BME280;63481;52.588;22.472;2023-03-26T05:06:52;98822.45;;;5.55;96.21
34034;BME280;63481;52.588;22.472;2023-03-26T05:07:53;98826.19;;;5.59;96.12
34034;BME280;63481;52.588;22.472;2023-03-26T05:08:46;98823.95;;;5.61;95.99
34034;BME280;63481;52.588;22.472;2023-03-26T05:09:48;98821.09;;;5.62;96.07
34034;BME280;63481;52.588;22.472;2023-03-26T05:10:43;98821.30;;;5.61;95.96
34034;BME280;63481;52.588;22.472;2023-03-26T05:11:45;98821.59;;;5.59;95.97
34034;BME280;63481;52.588;22.472;2023-03-26T05:12:40;98823.13;;;5.58;96.23
34034;BME280;63481;52.588;22.472;2023-03-26T05:13:39;98822.08;;;5.57;96.08
34034;BME280;63481;52.588;22.472;2023-03-26T05:14:35;98821.47;;;5.58;96.04
34034;BME280;63481;52.588;22.472;2023-03-26T05:15:30;98820.84;;;5.60;95.93
34034;BME280;63481;52.588;22.472;2023-03-26T05:16:31;98823.85;;;5.63;95.94
34034;BME280;63481;52.588;22.472;2023-03-26T05:17:31;98823.12;;;5.66;95.69
34034;BME280;63481;52.588;22.472;2023-03-26T05:18:26;98821.98;;;5.65;95.57
34034;BME280;63481;52.588;22.472;2023-03-26T05:19:19;98821.19;;;5.68;95.69
34034;BME280;63481;52.588;22.472;2023-03-26T05:20:21;98822.52;;;5.70;95.74
34034;BME280;63481;52.588;22.472;2023-03-26T05:21:14;98823.04;;;5.74;95.80
34034;BME280;63481;52.588;22.472;2023-03-26T05:22:06;98824.55;;;5.72;95.74